createdAt,value
2022-08-26T00:01:56.799Z,20.83
2022-08-26T00:04:26.141Z,24.27
2022-08-26T00:07:01.796Z,22.70
2022-08-26T00:09:42.147Z,21.27
2022-08-26T00:12:13.993Z,23.67
2022-08-26T00:14:41.794Z,19.20
2022-08-26T00:17:12.850Z,21.97
2022-08-26T00:19:43.546Z,20.73
2022-08-26T00:22:12.642Z,16.50
2022-08-26T00:24:47.838Z,18.80
2022-08-26T00:27:14.825Z,19.30
2022-08-26T00:29:41.417Z,19.87
2022-08-26T00:32:18.901Z,16.87
2022-08-26T00:34:47.607Z,13.77
2022-08-26T00:37:18.428Z,13.43
2022-08-26T00:39:51.020Z,13.27
2022-08-26T00:42:22.095Z,13.63
2022-08-26T00:44:49.378Z,13.23
2022-08-26T00:47:44.324Z,13.70
2022-08-26T00:50:16.984Z,16.40
2022-08-26T00:52:47.522Z,13.73
2022-08-26T00:55:21.711Z,13.60
2022-08-26T00:57:52.122Z,16.33
2022-08-26T01:00:26.165Z,10.23
2022-08-26T01:02:55.974Z,11.83
2022-08-26T01:05:27.940Z,11.27
2022-08-26T01:07:56.961Z,13.30
2022-08-26T01:10:31.182Z,14.87
2022-08-26T01:13:04.896Z,14.27
2022-08-26T01:15:40.078Z,18.40
2022-08-26T01:18:12.810Z,10.67
2022-08-26T01:21:12.376Z,10.27
2022-08-26T01:23:46.244Z,10.50
2022-08-26T01:26:19.706Z,9.20
2022-08-26T01:28:50.713Z,11.17
2022-08-26T01:31:23.672Z,9.80
2022-08-26T01:34:01.399Z,11.90
2022-08-26T01:36:29.687Z,8.37
2022-08-26T01:38:57.151Z,11.27
2022-08-26T01:41:27.196Z,5.03
2022-08-26T01:43:56.854Z,6.10
2022-08-26T01:46:25.755Z,6.57
2022-08-26T01:48:55.617Z,5.63
2022-08-26T01:51:27.360Z,6.50
2022-08-26T01:53:57.029Z,7.20
2022-08-26T01:56:33.446Z,6.00
2022-08-26T01:59:12.765Z,10.17
2022-08-26T02:01:40.787Z,4.63
2022-08-26T02:04:30.538Z,5.60
2022-08-26T02:06:57.505Z,6.07
2022-08-26T02:09:26.590Z,8.27
2022-08-26T02:11:53.801Z,7.27
2022-08-26T02:14:28.188Z,9.70
2022-08-26T02:16:55.086Z,11.37
2022-08-26T02:19:39.014Z,9.43
2022-08-26T02:22:12.518Z,13.53
2022-08-26T02:24:58.205Z,6.73
2022-08-26T02:27:34.683Z,6.70
2022-08-26T02:30:17.137Z,13.70
2022-08-26T02:32:44.339Z,13.17
2022-08-26T02:35:20.248Z,9.17
2022-08-26T02:37:47.950Z,7.43
2022-08-26T02:40:21.198Z,13.17
2022-08-26T02:42:49.438Z,6.80
2022-08-26T02:45:23.223Z,9.27
2022-08-26T02:47:52.861Z,10.90
2022-08-26T02:50:20.504Z,14.27
2022-08-26T02:52:57.090Z,15.10
2022-08-26T02:55:24.823Z,7.43
2022-08-26T02:57:57.965Z,15.83
2022-08-26T03:00:39.002Z,11.20
2022-08-26T03:03:12.798Z,10.83
2022-08-26T03:05:42.000Z,10.40
2022-08-26T03:08:10.601Z,11.63
2022-08-26T03:10:40.531Z,9.07
2022-08-26T03:13:08.372Z,6.27
2022-08-26T03:15:49.273Z,10.63
2022-08-26T03:18:17.709Z,13.03
2022-08-26T03:20:44.579Z,6.77
2022-08-26T03:23:11.584Z,11.13
2022-08-26T03:25:38.189Z,16.53
2022-08-26T03:28:09.543Z,7.40
2022-08-26T03:30:36.305Z,13.03
2022-08-26T03:33:06.755Z,11.77
2022-08-26T03:35:34.885Z,10.90
2022-08-26T03:38:03.987Z,13.10
2022-08-26T03:40:31.384Z,8.90
2022-08-26T03:43:01.821Z,9.83
2022-08-26T03:45:28.669Z,8.67
2022-08-26T03:47:55.293Z,10.43
2022-08-26T03:50:25.137Z,9.17
2022-08-26T03:52:54.835Z,9.10
2022-08-26T03:55:36.487Z,7.37
2022-08-26T03:58:04.083Z,8.80
2022-08-26T04:00:31.098Z,9.03
2022-08-26T04:02:57.914Z,12.03
2022-08-26T04:05:28.332Z,11.93
2022-08-26T04:07:57.341Z,11.87
2022-08-26T04:10:28.637Z,10.13
2022-08-26T04:13:01.367Z,13.13
2022-08-26T04:15:31.396Z,17.43
2022-08-26T04:17:58.047Z,12.67
2022-08-26T04:20:25.835Z,11.97
2022-08-26T04:22:56.969Z,10.07
2022-08-26T04:25:28.602Z,13.53
2022-08-26T04:27:57.393Z,10.70
2022-08-26T04:30:24.123Z,10.00
2022-08-26T04:32:54.298Z,11.17
2022-08-26T04:35:26.036Z,9.33
2022-08-26T04:37:55.796Z,11.37
2022-08-26T04:40:26.616Z,9.50
2022-08-26T04:42:53.921Z,6.20
2022-08-26T04:45:24.330Z,14.90
2022-08-26T04:47:55.675Z,8.27
2022-08-26T04:50:25.152Z,9.87
2022-08-26T04:52:51.859Z,8.43
2022-08-26T04:55:18.546Z,6.97
2022-08-26T04:57:48.591Z,7.17
2022-08-26T05:00:23.942Z,7.37
2022-08-26T05:03:00.413Z,12.77
2022-08-26T05:05:28.573Z,12.13
2022-08-26T05:07:55.113Z,10.30
2022-08-26T05:10:24.615Z,11.50
2022-08-26T05:12:52.278Z,9.13
2022-08-26T05:15:25.553Z,8.40
2022-08-26T05:17:52.127Z,11.37
2022-08-26T05:20:22.692Z,12.27
2022-08-26T05:22:55.530Z,11.07
2022-08-26T05:25:22.062Z,8.73
2022-08-26T05:27:52.581Z,12.67
2022-08-26T05:30:23.834Z,7.63
2022-08-26T05:32:55.236Z,13.07
2022-08-26T05:35:27.204Z,14.83
2022-08-26T05:37:59.421Z,6.47
2022-08-26T05:40:26.239Z,13.97
2022-08-26T05:42:53.069Z,12.90
2022-08-26T05:45:30.699Z,15.13
2022-08-26T05:47:57.397Z,8.10
2022-08-26T05:50:24.007Z,17.57
2022-08-26T05:52:59.624Z,13.87
2022-08-26T05:55:26.312Z,8.20
2022-08-26T05:57:57.315Z,8.47
2022-08-26T06:00:24.003Z,8.63
2022-08-26T06:02:51.305Z,10.03
2022-08-26T06:05:17.956Z,10.57
2022-08-26T06:07:44.614Z,13.57
2022-08-26T06:10:31.702Z,8.07
2022-08-26T06:12:59.144Z,8.90
2022-08-26T06:15:28.229Z,10.50
2022-08-26T06:17:55.811Z,12.73
2022-08-26T06:20:22.322Z,9.80
2022-08-26T06:22:48.792Z,7.83
2022-08-26T06:25:15.384Z,9.13
2022-08-26T06:27:44.128Z,8.97
2022-08-26T06:30:11.976Z,9.73
2022-08-26T06:32:38.972Z,6.20
2022-08-26T06:35:06.258Z,10.67
2022-08-26T06:37:38.450Z,8.97
2022-08-26T06:40:05.702Z,8.77
2022-08-26T06:42:32.167Z,8.07
2022-08-26T06:45:04.720Z,9.63
2022-08-26T06:47:31.356Z,8.07
2022-08-26T06:50:00.594Z,10.87
2022-08-26T06:52:27.468Z,8.57
2022-08-26T06:54:54.057Z,6.43
2022-08-26T06:57:20.914Z,9.23
2022-08-26T06:59:47.906Z,6.50
2022-08-26T07:02:21.413Z,6.47
2022-08-26T07:04:48.111Z,6.37
2022-08-26T07:07:17.821Z,8.27
2022-08-26T07:09:48.117Z,10.87
2022-08-26T07:12:18.792Z,9.63
2022-08-26T07:14:47.438Z,12.57
2022-08-26T07:17:15.440Z,6.37
2022-08-26T07:19:42.153Z,5.93
2022-08-26T07:22:09.058Z,7.67
2022-08-26T07:24:39.102Z,5.17
2022-08-26T07:27:08.983Z,8.93
2022-08-26T07:29:36.843Z,6.80
2022-08-26T07:32:03.879Z,10.17
2022-08-26T07:34:30.866Z,9.17
2022-08-26T07:36:57.299Z,6.07
2022-08-26T07:39:26.190Z,7.10
2022-08-26T07:41:53.239Z,9.00
2022-08-26T07:44:19.801Z,8.27
2022-08-26T07:46:52.329Z,7.63
2022-08-26T07:49:21.652Z,8.27
2022-08-26T07:51:48.216Z,4.13
2022-08-26T07:54:14.645Z,7.53
2022-08-26T07:56:41.203Z,4.87
2022-08-26T07:59:13.735Z,14.67
2022-08-26T08:01:41.466Z,6.67
2022-08-26T08:04:16.336Z,9.77
2022-08-26T08:06:44.187Z,5.70
2022-08-26T08:09:12.629Z,7.63
2022-08-26T08:11:39.644Z,8.97
2022-08-26T08:14:08.437Z,8.63
2022-08-26T08:16:37.254Z,6.97
2022-08-26T08:19:05.622Z,9.57
2022-08-26T08:21:32.122Z,4.87
2022-08-26T08:23:58.601Z,5.83
2022-08-26T08:26:26.560Z,7.13
2022-08-26T08:28:57.512Z,9.23
2022-08-26T08:34:13.744Z,9.17
2022-08-26T08:36:40.385Z,6.67
2022-08-26T08:39:08.152Z,7.97
2022-08-26T08:41:40.712Z,7.87
2022-08-26T08:44:19.582Z,7.03
2022-08-26T08:46:54.566Z,5.43
2022-08-26T08:49:22.584Z,4.43
2022-08-26T08:51:58.768Z,7.33
2022-08-26T08:54:26.207Z,12.03
2022-08-26T08:57:27.226Z,8.07
2022-08-26T09:00:05.437Z,5.00
2022-08-26T09:02:46.143Z,3.63
2022-08-26T09:05:25.928Z,6.23
2022-08-26T09:07:59.437Z,7.53
2022-08-26T09:10:47.258Z,6.17
2022-08-26T09:13:17.220Z,7.90
2022-08-26T09:16:19.041Z,6.30
2022-08-26T09:18:49.684Z,7.63
2022-08-26T09:21:18.664Z,7.17
2022-08-26T09:23:49.317Z,9.37
2022-08-26T09:26:29.178Z,6.20
2022-08-26T09:28:58.995Z,8.93
2022-08-26T09:31:31.721Z,5.43
2022-08-26T09:34:12.633Z,4.33
2022-08-26T09:36:46.687Z,3.53
2022-08-26T09:39:25.225Z,8.30
2022-08-26T09:42:08.400Z,5.37
2022-08-26T09:45:01.924Z,9.40
2022-08-26T09:47:37.032Z,10.03
2022-08-26T09:50:23.500Z,5.17
2022-08-26T09:53:28.548Z,3.57
2022-08-26T09:56:17.028Z,8.07
2022-08-26T09:58:46.778Z,2.43
2022-08-26T10:01:43.601Z,6.63
2022-08-26T10:04:23.026Z,6.40
2022-08-26T10:06:57.879Z,5.40
2022-08-26T10:09:25.605Z,7.47
2022-08-26T10:11:56.786Z,5.23
2022-08-26T10:14:29.219Z,6.40
2022-08-26T10:17:14.288Z,9.27
2022-08-26T10:19:57.216Z,6.10
2022-08-26T10:22:27.732Z,8.93
2022-08-26T10:24:57.509Z,4.47
2022-08-26T10:27:50.966Z,5.20
2022-08-26T10:30:22.279Z,7.17
2022-08-26T10:32:54.886Z,6.40
2022-08-26T10:35:21.476Z,10.80
2022-08-26T10:37:52.445Z,2.83
2022-08-26T10:40:26.654Z,7.00
2022-08-26T10:43:17.052Z,5.17
2022-08-26T10:45:49.983Z,7.43
2022-08-26T10:48:26.441Z,8.43
2022-08-26T10:51:03.171Z,7.33
2022-08-26T10:53:42.528Z,6.87
2022-08-26T10:56:37.165Z,5.03
2022-08-26T10:59:29.401Z,5.73
2022-08-26T11:02:33.173Z,7.53
2022-08-26T11:05:02.518Z,5.00
2022-08-26T11:07:46.387Z,7.03
2022-08-26T11:10:18.886Z,8.43
2022-08-26T11:12:49.237Z,10.67
2022-08-26T11:15:24.377Z,6.60
2022-08-26T11:17:51.241Z,5.13
2022-08-26T11:20:29.810Z,4.47
2022-08-26T11:23:16.761Z,6.00
2022-08-26T11:25:58.316Z,5.33
2022-08-26T11:28:45.006Z,5.60
2022-08-26T11:31:27.054Z,4.93
2022-08-26T11:33:58.009Z,4.20
2022-08-26T11:36:36.645Z,5.13
2022-08-26T11:39:14.406Z,5.13
2022-08-26T11:41:49.716Z,3.70
2022-08-26T11:44:24.623Z,5.13
2022-08-26T11:46:57.213Z,6.10
2022-08-26T11:49:24.273Z,1.53
2022-08-26T11:51:50.950Z,3.93
2022-08-26T11:54:30.493Z,4.23
2022-08-26T11:57:07.930Z,3.97
2022-08-26T11:59:40.636Z,6.60
2022-08-26T12:02:17.987Z,4.33
2022-08-26T12:04:48.940Z,3.60
2022-08-26T12:07:16.370Z,5.87
2022-08-26T12:10:00.504Z,4.73
2022-08-26T12:12:35.009Z,5.80
2022-08-26T12:15:18.422Z,7.13
2022-08-26T12:17:50.493Z,6.03
2022-08-26T12:20:38.117Z,4.87
2022-08-26T12:23:04.556Z,6.07
2022-08-26T12:25:35.964Z,6.73
2022-08-26T12:28:05.406Z,2.97
2022-08-26T12:30:31.961Z,4.97
2022-08-26T12:33:13.356Z,4.27
2022-08-26T12:35:51.472Z,3.60
2022-08-26T12:38:23.197Z,2.83
2022-08-26T12:40:49.672Z,3.13
2022-08-26T12:43:45.556Z,3.17
2022-08-26T12:46:28.079Z,3.63
2022-08-26T12:48:54.616Z,5.13
2022-08-26T12:51:30.989Z,8.23
2022-08-26T12:53:59.045Z,2.90
2022-08-26T12:56:25.466Z,1.93
2022-08-26T12:59:08.840Z,2.73
2022-08-26T13:01:41.216Z,4.63
2022-08-26T13:04:07.823Z,2.53
2022-08-26T13:07:12.745Z,5.90
2022-08-26T13:09:39.448Z,6.63
2022-08-26T13:12:12.624Z,4.43
2022-08-26T13:14:39.185Z,4.50
2022-08-26T13:17:17.437Z,6.20
2022-08-26T13:19:46.718Z,2.93
2022-08-26T13:22:17.059Z,3.77
2022-08-26T13:25:05.402Z,4.10
2022-08-26T13:27:32.207Z,3.20
2022-08-26T13:30:01.743Z,4.57
2022-08-26T13:32:29.917Z,5.43
2022-08-26T13:35:05.827Z,1.67
2022-08-26T13:37:42.139Z,3.50
2022-08-26T13:40:09.576Z,4.20
2022-08-26T13:42:49.508Z,5.90
2022-08-26T13:45:16.992Z,4.97
2022-08-26T13:47:43.655Z,9.07
2022-08-26T13:50:12.388Z,7.83
2022-08-26T13:52:40.122Z,5.47
2022-08-26T13:55:07.241Z,6.10
2022-08-26T13:57:54.056Z,7.67
2022-08-26T14:00:25.230Z,4.70
2022-08-26T14:02:51.870Z,5.97
2022-08-26T14:05:21.785Z,5.97
2022-08-26T14:07:48.386Z,8.40
2022-08-26T14:10:18.436Z,3.57
2022-08-26T14:12:45.497Z,4.90
2022-08-26T14:15:17.768Z,4.07
2022-08-26T14:17:49.174Z,6.57
2022-08-26T14:20:31.536Z,6.17
2022-08-26T14:23:13.045Z,5.00
2022-08-26T14:25:44.255Z,5.83
2022-08-26T14:30:55.538Z,4.60
2022-08-26T14:33:26.128Z,4.93
2022-08-26T14:35:52.947Z,8.67
2022-08-26T14:38:24.309Z,3.93
2022-08-26T14:40:59.445Z,7.37
2022-08-26T14:43:27.385Z,5.63
2022-08-26T14:46:20.635Z,3.30
2022-08-26T14:48:49.572Z,7.90
2022-08-26T14:51:19.798Z,4.20
2022-08-26T14:54:01.200Z,5.50
2022-08-26T14:56:32.198Z,3.10
2022-08-26T14:58:58.872Z,5.60
2022-08-26T15:01:30.387Z,4.37
2022-08-26T15:03:57.982Z,9.10
2022-08-26T15:06:30.748Z,11.90
2022-08-26T15:09:00.026Z,5.37
2022-08-26T15:11:28.958Z,6.07
2022-08-26T15:13:56.777Z,7.93
2022-08-26T15:16:25.745Z,5.73
2022-08-26T15:18:57.374Z,7.90
2022-08-26T15:21:28.872Z,8.50
2022-08-26T15:23:57.628Z,5.43
2022-08-26T15:26:26.454Z,4.67
2022-08-26T15:28:55.220Z,4.20
2022-08-26T15:31:29.247Z,3.33
2022-08-26T15:33:57.244Z,4.03
2022-08-26T15:36:27.134Z,5.37
2022-08-26T15:38:57.890Z,7.60
2022-08-26T15:41:25.663Z,4.97
2022-08-26T15:43:53.487Z,4.83
2022-08-26T15:46:20.247Z,5.17
2022-08-26T15:48:46.847Z,6.17
2022-08-26T15:51:29.291Z,6.10
2022-08-26T15:53:57.074Z,4.20
2022-08-26T15:56:33.714Z,7.43
2022-08-26T15:59:03.226Z,7.63
2022-08-26T16:01:33.022Z,8.37
2022-08-26T16:04:03.515Z,9.33
2022-08-26T16:06:37.848Z,8.40
2022-08-26T16:09:08.188Z,5.30
2022-08-26T16:11:37.846Z,5.57
2022-08-26T16:14:05.552Z,7.87
2022-08-26T16:17:09.415Z,6.77
2022-08-26T16:19:27.523Z,8.10
2022-08-26T16:21:55.376Z,7.83
2022-08-26T16:24:29.790Z,7.27
2022-08-26T16:26:57.068Z,10.13
2022-08-26T16:29:25.804Z,9.57
2022-08-26T16:31:54.449Z,6.20
2022-08-26T16:34:22.109Z,8.33
2022-08-26T16:36:52.255Z,3.87
2022-08-26T16:39:20.153Z,5.23
2022-08-26T16:41:49.061Z,4.83
2022-08-26T16:44:24.130Z,4.77
2022-08-26T16:47:03.400Z,4.90
2022-08-26T16:49:32.327Z,7.43
2022-08-26T16:52:00.704Z,5.23
2022-08-26T16:54:33.608Z,6.73
2022-08-26T16:59:50.386Z,8.80
2022-08-26T17:02:23.099Z,6.10
2022-08-26T17:04:51.177Z,4.93
2022-08-26T17:07:30.125Z,5.07
2022-08-26T17:09:57.943Z,10.23
2022-08-26T17:12:24.615Z,5.83
2022-08-26T17:14:58.154Z,8.40
2022-08-26T17:17:35.910Z,9.33
2022-08-26T17:20:14.925Z,5.03
2022-08-26T17:22:56.523Z,4.23
2022-08-26T17:25:29.041Z,4.20
2022-08-26T17:28:01.891Z,8.87
2022-08-26T17:30:29.827Z,7.37
2022-08-26T17:33:11.018Z,8.50
2022-08-26T17:35:40.113Z,19.90
2022-08-26T17:38:06.782Z,6.23
2022-08-26T17:40:35.408Z,5.33
2022-08-26T17:43:01.931Z,8.90
2022-08-26T17:45:28.390Z,7.70
2022-08-26T17:47:56.040Z,9.63
2022-08-26T17:50:23.856Z,4.17
2022-08-26T17:52:50.368Z,9.17
2022-08-26T17:55:18.530Z,3.17
2022-08-26T17:57:53.566Z,4.63
2022-08-26T18:00:23.464Z,6.17
2022-08-26T18:02:49.898Z,5.77
2022-08-26T18:05:16.628Z,6.77
2022-08-26T18:07:44.295Z,4.93
2022-08-26T18:10:13.474Z,6.47
2022-08-26T18:12:40.875Z,5.40
2022-08-26T18:15:08.713Z,3.13
2022-08-26T18:17:35.344Z,5.40
2022-08-26T18:20:02.085Z,6.33
2022-08-26T18:22:29.007Z,3.37
2022-08-26T18:24:58.888Z,4.63
2022-08-26T18:27:27.316Z,4.27
2022-08-26T18:29:57.202Z,5.97
2022-08-26T18:32:23.886Z,4.10
2022-08-26T18:34:50.562Z,7.93
2022-08-26T18:37:21.299Z,5.10
2022-08-26T18:39:50.192Z,3.80
2022-08-26T18:42:19.286Z,6.47
2022-08-26T18:45:19.636Z,4.97
2022-08-26T18:47:40.215Z,4.00
2022-08-26T18:50:16.424Z,5.80
2022-08-26T18:52:46.732Z,6.20
2022-08-26T18:55:13.244Z,5.67
2022-08-26T18:57:39.954Z,4.37
2022-08-26T19:00:07.898Z,4.83
2022-08-26T19:02:34.646Z,5.73
2022-08-26T19:05:01.426Z,3.80
2022-08-26T19:07:27.881Z,3.93
2022-08-26T19:09:54.379Z,2.97
2022-08-26T19:12:21.010Z,8.87
2022-08-26T19:14:47.430Z,3.93
2022-08-26T19:17:14.188Z,6.13
2022-08-26T19:19:40.760Z,6.50
2022-08-26T19:22:07.579Z,3.53
2022-08-26T19:24:34.241Z,12.17
2022-08-26T19:27:02.147Z,3.80
2022-08-26T19:29:33.453Z,6.70
2022-08-26T19:32:00.293Z,4.20
2022-08-26T19:34:26.769Z,4.60
2022-08-26T19:36:54.183Z,7.83
2022-08-26T19:39:21.454Z,5.80
2022-08-26T19:41:48.124Z,4.73
2022-08-26T19:44:17.133Z,4.93
2022-08-26T19:46:43.596Z,4.03
2022-08-26T19:49:10.231Z,4.37
2022-08-26T19:51:41.359Z,3.40
2022-08-26T19:54:12.109Z,5.17
2022-08-26T19:56:42.050Z,7.30
2022-08-26T19:59:21.174Z,5.37
2022-08-26T20:01:55.171Z,10.20
2022-08-26T20:04:30.215Z,4.23
2022-08-26T20:07:00.941Z,6.17
2022-08-26T20:09:34.120Z,6.13
2022-08-26T20:12:01.546Z,8.50
2022-08-26T20:14:32.414Z,4.03
2022-08-26T20:17:01.469Z,8.47
2022-08-26T20:19:27.984Z,7.97
2022-08-26T20:21:54.833Z,9.33
2022-08-26T20:25:08.156Z,9.83
2022-08-26T20:27:08.859Z,4.83
2022-08-26T20:29:38.967Z,7.43
2022-08-26T20:32:07.640Z,7.40
2022-08-26T20:34:37.456Z,5.63
2022-08-26T20:37:04.440Z,7.23
2022-08-26T20:39:32.258Z,6.00
2022-08-26T20:42:00.756Z,5.13
2022-08-26T20:44:28.597Z,6.87
2022-08-26T20:46:57.643Z,6.70
2022-08-26T20:49:26.673Z,5.47
2022-08-26T20:51:53.358Z,5.63
2022-08-26T20:54:26.161Z,6.27
2022-08-26T20:56:58.502Z,10.07
2022-08-26T20:59:25.892Z,9.13
2022-08-26T21:01:52.901Z,5.23
2022-08-26T21:04:29.849Z,8.80
2022-08-26T21:06:57.760Z,5.97
2022-08-26T21:09:28.198Z,4.27
2022-08-26T21:11:58.799Z,5.87
2022-08-26T21:14:26.462Z,5.93
2022-08-26T21:16:54.610Z,6.17
2022-08-26T21:19:23.907Z,11.60
2022-08-26T21:21:52.044Z,8.03
2022-08-26T21:24:20.006Z,6.50
2022-08-26T21:26:50.638Z,7.30
2022-08-26T21:29:17.190Z,7.27
2022-08-26T21:31:46.383Z,7.93
2022-08-26T21:34:16.407Z,7.50
2022-08-26T21:36:45.904Z,7.60
2022-08-26T21:39:15.430Z,3.83
2022-08-26T21:41:51.651Z,6.73
2022-08-26T21:44:18.538Z,9.00
2022-08-26T21:46:48.609Z,5.17
2022-08-26T21:49:17.368Z,5.27
2022-08-26T21:51:47.301Z,7.43
2022-08-26T21:54:15.141Z,5.33
2022-08-26T21:56:46.042Z,5.57
2022-08-26T21:59:15.238Z,6.67
2022-08-26T22:01:41.876Z,6.80
2022-08-26T22:04:09.827Z,5.23
2022-08-26T22:06:46.453Z,9.53
2022-08-26T22:09:15.169Z,7.33
2022-08-26T22:11:41.853Z,6.03
2022-08-26T22:14:08.823Z,7.13
2022-08-26T22:16:35.326Z,5.30
2022-08-26T22:19:01.825Z,7.87
2022-08-26T22:21:28.428Z,5.20
2022-08-26T22:23:57.956Z,8.53
2022-08-26T22:26:27.552Z,5.90
2022-08-26T22:28:55.628Z,4.03
2022-08-26T22:31:28.111Z,10.70
2022-08-26T22:34:06.365Z,7.07
2022-08-26T22:36:32.857Z,6.17
2022-08-26T22:38:59.283Z,5.80
2022-08-26T22:41:28.379Z,7.37
2022-08-26T22:44:01.776Z,5.63
2022-08-26T22:46:29.900Z,7.97
2022-08-26T22:48:56.534Z,7.20
2022-08-26T22:51:23.048Z,7.23
2022-08-26T22:53:51.635Z,5.97
2022-08-26T22:56:18.374Z,7.03
2022-08-26T22:58:46.863Z,5.03
2022-08-26T23:01:16.706Z,6.03
2022-08-26T23:03:44.395Z,6.53
2022-08-26T23:06:14.033Z,6.70
2022-08-26T23:08:41.491Z,6.27
2022-08-26T23:11:10.145Z,6.60
2022-08-26T23:13:36.763Z,6.03
2022-08-26T23:16:07.861Z,6.83
2022-08-26T23:18:35.448Z,6.43
2022-08-26T23:21:04.983Z,10.10
2022-08-26T23:23:32.269Z,5.77
2022-08-26T23:26:03.242Z,7.93
2022-08-26T23:28:32.335Z,6.27
2022-08-26T23:30:58.863Z,8.23
2022-08-26T23:33:25.557Z,7.10
2022-08-26T23:35:52.141Z,7.83
2022-08-26T23:38:18.699Z,6.23
2022-08-26T23:40:47.331Z,7.77
2022-08-26T23:43:13.813Z,7.30
2022-08-26T23:45:42.619Z,7.50
2022-08-26T23:48:09.345Z,8.13
2022-08-26T23:50:38.020Z,7.60
2022-08-26T23:53:04.673Z,9.20
2022-08-26T23:55:36.923Z,7.50
2022-08-26T23:58:03.963Z,6.53
